Time;durP1;ratioP1;P1;durP2;ratioP2;P2;SDS_P1;SDS_P2;PMS_P1;PMS_P2;Temp;Humidity;BMP_temperature;BMP_pressure;BME280_temperature;BME280_humidity;BME280_pressure;Samples;Min_cycle;Max_cycle;Signal;HPM_P1;HPM_P2
2023/11/15 00:01:57;;;;;;;29.65;7.22;;;13.70;99.90;;;13.90;100.00;100696.78;4806405;29;20067;-64
2023/11/15 00:04:26;;;;;;;23.27;7.07;;;13.70;99.90;;;13.91;100.00;100701.22;4806351;29;20480;-63
2023/11/15 00:06:55;;;;;;;27.02;7.45;;;13.70;99.90;;;13.83;100.00;100702.28;4806341;29;20062;-64
2023/11/15 00:09:23;;;;;;;37.17;7.35;;;13.60;99.90;;;13.87;100.00;100703.97;4806247;29;20046;-64
2023/11/15 00:11:51;;;;;;;33.85;7.22;;;13.60;99.90;;;13.75;100.00;100701.53;4806225;29;20429;-64
2023/11/15 00:14:20;;;;;;;26.98;6.60;;;13.50;99.90;;;13.69;100.00;100705.22;4806287;29;20134;-63
2023/11/15 00:16:50;;;;;;;28.27;6.93;;;13.50;99.90;;;13.75;100.00;100706.88;4806184;29;20055;-64
2023/11/15 00:19:20;;;;;;;29.92;7.43;;;13.50;99.90;;;13.69;100.00;100701.66;4806172;29;20047;-64
2023/11/15 00:21:49;;;;;;;25.85;7.25;;;13.50;99.90;;;13.69;100.00;100722.94;4806065;29;20061;-64
2023/11/15 00:24:18;;;;;;;25.17;6.75;;;13.50;99.90;;;13.49;100.00;100702.94;4804995;29;20047;-64
2023/11/15 00:26:46;;;;;;;30.05;7.53;;;13.40;99.90;;;13.58;100.00;100716.06;4805961;29;20414;-64
2023/11/15 00:29:15;;;;;;;26.27;6.80;;;13.30;99.90;;;13.47;100.00;100733.13;4806053;29;20047;-64
2023/11/15 00:31:43;;;;;;;26.13;7.13;;;13.30;99.90;;;13.48;100.00;100727.78;4806191;29;20053;-65
2023/11/15 00:34:14;;;;;;;30.63;7.10;;;13.20;99.90;;;13.50;100.00;100733.94;4806168;29;20088;-64
2023/11/15 00:36:43;;;;;;;25.70;7.13;;;13.30;99.90;;;13.52;100.00;100736.56;4820167;29;20516;-64
2023/11/15 00:39:12;;;;;;;23.95;6.45;;;13.30;99.90;;;13.45;100.00;100745.56;4806070;29;20477;-64
2023/11/15 00:41:40;;;;;;;30.80;6.65;;;13.20;99.90;;;13.29;100.00;100750.25;4820011;29;20057;-64
2023/11/15 00:44:09;;;;;;;25.27;7.15;;;13.10;99.90;;;13.35;100.00;100743.97;4805976;29;20137;-64
2023/11/15 00:46:39;;;;;;;25.80;7.22;;;13.10;99.90;;;13.33;100.00;100748.41;4805979;29;20078;-63
2023/11/15 00:49:07;;;;;;;24.70;7.20;;;13.10;99.90;;;13.27;100.00;100749.41;4805879;29;20107;-64
2023/11/15 00:51:37;;;;;;;20.13;6.32;;;13.10;99.90;;;13.37;100.00;100755.44;4805853;29;20047;-64
2023/11/15 00:54:07;;;;;;;28.52;7.00;;;13.10;99.90;;;13.32;100.00;100757.28;4804682;29;20055;-64
2023/11/15 00:56:35;;;;;;;24.70;7.53;;;13.10;99.90;;;13.40;100.00;100758.03;4805601;29;20450;-64
2023/11/15 00:59:05;;;;;;;24.58;6.68;;;13.10;99.90;;;13.30;100.00;100754.66;4805912;29;20058;-64
2023/11/15 01:01:33;;;;;;;22.33;6.13;;;13.10;99.90;;;13.27;100.00;100754.72;4819683;29;20055;-64
2023/11/15 01:04:05;;;;;;;23.83;5.72;;;13.00;99.90;;;13.25;100.00;100753.88;4805545;29;20076;-64
2023/11/15 01:06:34;;;;;;;21.00;6.07;;;13.10;99.90;;;13.40;100.00;100768.66;4819844;29;20116;-64
2023/11/15 01:09:07;;;;;;;22.80;6.13;;;13.10;99.90;;;13.45;100.00;100765.00;4819843;29;20054;-64
2023/11/15 01:11:36;;;;;;;27.13;6.43;;;13.20;99.90;;;13.47;100.00;100771.16;4805814;29;20055;-64
2023/11/15 01:14:05;;;;;;;24.15;6.90;;;13.20;99.90;;;13.52;100.00;100764.00;4819743;29;20490;-64
2023/11/15 01:16:34;;;;;;;22.77;6.22;;;13.30;99.90;;;13.49;100.00;100764.03;4805446;29;20100;-64
2023/11/15 01:19:02;;;;;;;20.50;6.50;;;13.30;99.90;;;13.42;100.00;100773.03;4805500;29;20126;-64
2023/11/15 01:21:31;;;;;;;30.85;6.43;;;13.20;99.90;;;13.57;100.00;100786.06;4805764;29;20051;-64
2023/11/15 01:24:00;;;;;;;23.05;6.70;;;13.30;99.90;;;13.52;100.00;100785.28;4819691;29;20047;-64
2023/11/15 01:26:31;;;;;;;20.73;6.00;;;13.30;99.90;;;13.56;100.00;100780.78;4805904;29;20051;-64
2023/11/15 01:29:00;;;;;;;31.13;7.47;;;13.30;99.90;;;12.91;100.00;100683.59;4806851;29;20051;-64
2023/11/15 01:31:28;;;;;;;24.52;7.28;;;13.30;99.90;;;13.55;100.00;100798.50;4823025;29;20082;-64
2023/11/15 01:33:56;;;;;;;34.22;6.70;;;13.40;99.90;;;13.44;100.00;100804.91;4809166;29;20077;-64
2023/11/15 01:36:25;;;;;;;26.92;6.15;;;13.30;99.90;;;13.47;100.00;100805.72;4822885;29;20481;-64
2023/11/15 01:38:53;;;;;;;23.98;6.68;;;13.30;99.90;;;13.49;100.00;100814.53;4809183;29;20184;-64
2023/11/15 01:41:21;;;;;;;25.27;6.25;;;13.30;99.90;;;13.53;100.00;100807.38;4809105;29;20081;-64
2023/11/15 01:43:51;;;;;;;23.98;6.45;;;13.30;99.90;;;13.66;100.00;100813.38;4809021;29;20405;-64
2023/11/15 01:46:21;;;;;;;22.25;6.43;;;13.40;99.90;;;13.50;100.00;100816.31;4822869;29;20394;-64
2023/11/15 01:48:50;;;;;;;23.88;6.28;;;13.30;99.90;;;13.63;100.00;100814.28;4809109;29;20134;-64
2023/11/15 01:51:19;;;;;;;32.65;6.25;;;13.40;99.90;;;13.48;100.00;100818.13;4808645;29;20099;-64
2023/11/15 01:53:48;;;;;;;25.58;6.57;;;13.30;99.90;;;13.42;100.00;100826.19;4808636;29;20405;-64
2023/11/15 01:56:16;;;;;;;26.42;6.75;;;13.30;99.90;;;13.37;100.00;100832.47;4808904;29;20125;-64
2023/11/15 01:58:46;;;;;;;20.20;6.22;;;13.20;99.90;;;13.43;100.00;100838.53;4822313;29;20103;-64
2023/11/15 02:01:16;;;;;;;25.02;6.28;;;13.20;99.90;;;13.39;100.00;100826.22;4808633;29;20074;-64
2023/11/15 02:03:45;;;;;;;27.45;6.47;;;13.20;99.90;;;13.45;100.00;100833.22;4822406;29;20451;-64
2023/11/15 02:06:14;;;;;;;24.33;6.68;;;13.20;99.90;;;13.52;100.00;100843.72;4808388;29;20505;-63
2023/11/15 02:08:43;;;;;;;22.45;6.10;;;13.30;99.90;;;13.50;100.00;100852.63;4808372;29;20104;-64
2023/11/15 02:11:11;;;;;;;28.85;6.07;;;13.30;99.90;;;13.45;100.00;100859.81;4822288;29;20112;-64
2023/11/15 02:13:39;;;;;;;23.50;6.28;;;13.20;99.90;;;13.39;99.88;100830.69;4808247;29;20511;-63
2023/11/15 02:16:10;;;;;;;22.10;6.35;;;13.30;99.90;;;13.48;99.87;100859.75;4808231;29;20128;-64
2023/11/15 02:18:40;;;;;;;27.20;6.75;;;13.30;99.90;;;13.50;100.00;100864.13;4807291;29;20146;-64
2023/11/15 02:21:09;;;;;;;28.75;6.70;;;13.30;99.90;;;13.42;100.00;100860.72;4822567;29;20070;-64
2023/11/15 02:23:43;;;;;;;32.70;6.55;;;13.30;99.90;;;13.45;100.00;100873.94;4808252;29;20054;-64
2023/11/15 02:26:13;;;;;;;24.25;6.70;;;13.30;99.90;;;13.43;100.00;100872.25;4808407;29;20119;-66
2023/11/15 02:28:41;;;;;;;30.07;6.87;;;13.20;99.90;;;13.48;100.00;100867.72;4808329;29;20058;-64
2023/11/15 02:31:11;;;;;;;25.90;6.53;;;13.20;99.90;;;13.40;100.00;100857.22;4806896;29;20296;-64
2023/11/15 02:33:40;;;;;;;22.85;6.35;;;13.20;99.90;;;13.48;100.00;100865.06;4821811;29;20070;-64
2023/11/15 02:36:09;;;;;;;32.10;6.70;;;13.20;99.90;;;13.43;100.00;100862.47;4808190;29;20050;-64
2023/11/15 02:38:38;;;;;;;24.10;6.82;;;13.30;99.90;;;13.47;100.00;100868.63;4822209;29;20489;-64
2023/11/15 02:41:09;;;;;;;26.83;6.40;;;13.30;99.90;;;13.51;100.00;100871.19;4806962;29;20597;-64
2023/11/15 02:43:38;;;;;;;25.52;6.78;;;13.30;99.90;;;13.46;100.00;100874.84;4807912;29;20049;-64
2023/11/15 02:46:06;;;;;;;25.55;6.00;;;13.20;99.90;;;13.53;100.00;100879.13;4808007;29;20082;-64
2023/11/15 02:48:35;;;;;;;33.92;6.75;;;13.30;99.90;;;13.49;100.00;100873.00;4807665;29;20445;-64
2023/11/15 02:51:04;;;;;;;25.58;6.57;;;13.30;99.90;;;13.48;100.00;100865.06;4807867;29;20082;-64
2023/11/15 02:53:32;;;;;;;26.77;6.82;;;13.30;99.90;;;13.45;100.00;100857.16;4807600;29;20051;-65
2023/11/15 02:56:01;;;;;;;25.45;7.60;;;13.30;99.90;;;13.67;100.00;100871.81;4807909;29;20039;-64
2023/11/15 02:58:31;;;;;;;29.42;6.28;;;13.40;99.90;;;13.67;100.00;100882.44;4807808;29;20050;-64
2023/11/15 03:00:59;;;;;;;25.40;6.15;;;13.40;99.90;;;13.71;100.00;100876.19;4807802;29;20047;-64
2023/11/15 03:03:29;;;;;;;30.55;7.25;;;13.50;99.90;;;13.66;100.00;100879.81;4821573;29;20043;-64
2023/11/15 03:05:58;;;;;;;22.83;6.93;;;13.50;99.90;;;13.67;100.00;100882.44;4807570;29;20758;-64
2023/11/15 03:08:26;;;;;;;26.20;6.15;;;13.50;99.90;;;13.71;100.00;100888.59;4807612;29;20055;-64
2023/11/15 03:10:55;;;;;;;24.45;6.70;;;13.40;99.90;;;13.66;100.00;100879.81;4821466;29;20058;-64
2023/11/15 03:13:23;;;;;;;28.33;6.75;;;13.40;99.90;;;13.55;100.00;100883.53;4821401;29;20102;-64
2023/11/15 03:15:54;;;;;;;25.52;6.18;;;13.30;99.90;;;13.70;100.00;100895.72;4807517;29;20054;-64
2023/11/15 03:18:22;;;;;;;24.25;5.75;;;13.40;99.90;;;13.70;100.00;100902.78;4821362;29;20059;-64
2023/11/15 03:20:51;;;;;;;22.45;6.03;;;13.50;99.90;;;13.64;100.00;100903.78;4807483;29;20047;-64
2023/11/15 03:23:19;;;;;;;24.00;6.43;;;13.40;99.90;;;13.69;100.00;100906.34;4807145;29;20166;-64
2023/11/15 03:25:48;;;;;;;25.35;6.13;;;13.50;99.90;;;13.70;100.00;100900.13;4807239;29;20042;-63
2023/11/15 03:28:17;;;;;;;20.70;5.90;;;13.50;99.90;;;13.71;100.00;100901.88;4821090;29;20055;-64
2023/11/15 03:30:45;;;;;;;36.28;6.85;;;13.50;99.90;;;13.80;100.00;100907.06;4806937;29;20087;-64
2023/11/15 03:33:15;;;;;;;20.15;5.80;;;13.60;99.90;;;13.74;100.00;100905.38;4807190;29;20405;-63
2023/11/15 03:35:44;;;;;;;22.95;6.25;;;13.60;99.90;;;13.74;99.67;100913.38;4807152;29;20134;-64
2023/11/15 03:38:12;;;;;;;27.60;6.13;;;13.50;99.90;;;13.87;99.54;100914.03;4807102;29;20138;-64
2023/11/15 03:40:41;;;;;;;24.73;5.95;;;13.60;99.90;;;13.78;99.30;100919.50;4807330;29;20094;-64
2023/11/15 03:43:10;;;;;;;26.30;5.28;;;13.60;99.90;;;13.77;99.84;100917.72;4807254;29;20467;-64
2023/11/15 03:45:39;;;;;;;16.13;5.68;;;13.60;99.90;;;13.84;99.24;100917.59;4806884;29;20107;-64
2023/11/15 03:48:09;;;;;;;22.90;5.32;;;13.60;99.90;;;13.89;99.50;100914.88;4820915;29;20162;-64
2023/11/15 03:50:39;;;;;;;23.98;5.97;;;13.70;99.90;;;13.89;98.98;100901.56;4820888;29;20462;-64
2023/11/15 03:53:07;;;;;;;29.03;6.50;;;13.70;99.90;;;13.87;99.45;100924.66;4806559;29;20088;-64
2023/11/15 03:55:35;;;;;;;22.92;5.75;;;13.60;99.90;;;13.94;99.21;100923.63;4806742;29;20380;-64
2023/11/15 03:58:04;;;;;;;24.50;5.85;;;13.70;99.90;;;13.93;98.87;100924.56;4820729;29;20059;-64
2023/11/15 04:00:32;;;;;;;23.20;6.03;;;13.70;99.90;;;14.02;98.63;100924.38;4806716;29;20077;-64
2023/11/15 04:03:01;;;;;;;25.95;6.43;;;13.80;99.90;;;13.94;98.32;100939.59;4806749;29;20857;-64
2023/11/15 04:05:29;;;;;;;24.63;6.60;;;13.70;99.90;;;14.01;98.55;100939.50;4806620;29;20054;-64
2023/11/15 04:07:59;;;;;;;23.75;6.03;;;13.80;99.90;;;13.96;98.63;100943.09;4806789;29;20090;-64
2023/11/15 04:10:27;;;;;;;24.42;5.70;;;13.70;99.90;;;13.83;100.00;100938.91;4806532;29;20133;-64
2023/11/15 04:12:56;;;;;;;16.85;5.55;;;13.70;99.90;;;13.87;100.00;100937.94;4806501;29;20054;-64
2023/11/15 04:15:24;;;;;;;23.02;5.65;;;13.60;99.90;;;13.80;100.00;100941.63;4805204;29;20065;-64
2023/11/15 04:17:52;;;;;;;23.13;6.13;;;13.60;99.90;;;13.73;100.00;100950.59;4806148;29;20175;-64
2023/11/15 04:20:22;;;;;;;24.50;6.32;;;13.50;99.90;;;13.71;100.00;100955.03;4820328;29;20493;-64
2023/11/15 04:22:50;;;;;;;22.20;5.85;;;13.50;99.90;;;13.65;100.00;100955.13;4820387;29;20047;-64
2023/11/15 04:25:20;;;;;;;21.10;5.88;;;13.40;99.90;;;13.69;100.00;100954.19;4805976;29;20149;-64
2023/11/15 04:27:48;;;;;;;25.13;6.10;;;13.50;99.90;;;13.56;99.92;100967.69;4806321;29;20405;-64
2023/11/15 04:30:17;;;;;;;18.92;5.93;;;13.40;99.90;;;13.68;99.93;100968.41;4806218;29;20076;-64
2023/11/15 04:32:47;;;;;;;18.63;5.20;;;13.40;99.90;;;13.61;99.54;100969.41;4806426;29;20099;-64
2023/11/15 04:35:16;;;;;;;19.88;5.47;;;13.40;99.90;;;13.42;100.00;100953.72;4806498;29;20059;-64
2023/11/15 04:37:45;;;;;;;20.00;6.32;;;13.30;99.90;;;13.60;99.35;100971.19;4805876;29;20588;-64
2023/11/15 04:40:13;;;;;;;23.35;6.05;;;13.40;99.90;;;13.46;100.00;100978.47;4805839;29;20122;-63
2023/11/15 04:42:43;;;;;;;23.20;5.90;;;13.30;99.90;;;13.47;100.00;100988.22;4806087;29;20121;-64
2023/11/15 04:45:11;;;;;;;19.75;5.43;;;13.20;99.90;;;13.49;99.67;100987.25;4805737;29;20051;-64
2023/11/15 04:47:40;;;;;;;22.65;5.80;;;13.30;99.90;;;13.51;99.47;100984.59;4820019;29;20496;-64
2023/11/15 04:50:10;;;;;;;18.42;5.68;;;13.30;99.90;;;13.54;99.39;100990.75;4805769;29;20459;-64
2023/11/15 04:52:38;;;;;;;26.17;6.87;;;13.30;99.90;;;13.58;98.78;100992.47;4806032;29;20137;-64
2023/11/15 04:55:09;;;;;;;15.63;5.57;;;13.30;99.90;;;13.52;98.73;100995.22;4806213;29;20078;-64
2023/11/15 04:57:39;;;;;;;21.60;6.00;;;13.30;99.90;;;13.53;98.50;100996.97;4805952;29;20455;-64
2023/11/15 05:00:11;;;;;;;22.42;5.32;;;13.30;99.90;;;13.62;97.98;101003.03;4805684;29;20062;-64
2023/11/15 05:02:40;;;;;;;22.73;6.40;;;13.40;99.90;;;13.64;97.69;101003.91;4805651;29;20059;-64
2023/11/15 05:05:10;;;;;;;16.75;5.57;;;13.40;99.90;;;13.48;97.73;100988.19;4805232;29;20104;-64
2023/11/15 05:07:38;;;;;;;20.48;5.70;;;13.30;99.90;;;13.42;97.73;100998.00;4805532;29;20058;-64
2023/11/15 05:10:09;;;;;;;18.88;5.90;;;13.20;99.90;;;13.43;97.79;100994.47;4805741;29;20121;-64
2023/11/15 05:12:38;;;;;;;21.73;5.30;;;13.30;99.90;;;13.50;97.82;100999.66;4805813;29;20137;-64
2023/11/15 05:15:09;;;;;;;23.33;5.47;;;13.30;99.90;;;13.52;97.80;100991.66;4805483;29;20054;-64
2023/11/15 05:17:37;;;;;;;;;;;13.30;99.90;;;13.56;97.44;101012.00;4805865;29;20051;-64
2023/11/15 05:20:08;;;;;;;19.70;5.28;;;13.30;99.90;;;13.50;98.06;101004.97;4805772;29;20343;-64
2023/11/15 05:22:36;;;;;;;23.20;5.55;;;13.30;99.90;;;13.50;97.57;101004.09;4805487;29;20051;-64
2023/11/15 05:25:05;;;;;;;21.67;5.50;;;13.30;99.90;;;13.46;97.65;101018.31;4805313;29;20043;-64
2023/11/15 05:27:34;;;;;;;17.75;5.45;;;13.20;99.90;;;13.54;97.55;101022.66;4805626;29;20063;-64
2023/11/15 05:30:02;;;;;;;23.05;5.70;;;13.30;99.90;;;13.67;97.38;101025.09;4805937;29;20051;-64
2023/11/15 05:32:32;;;;;;;17.92;5.15;;;13.40;99.90;;;13.59;97.64;101023.44;4805507;29;20039;-64
2023/11/15 05:35:01;;;;;;;20.55;6.30;;;13.40;99.90;;;13.58;97.05;101024.38;4805612;29;20055;-64
2023/11/15 05:37:29;;;;;;;24.17;5.75;;;13.40;99.90;;;13.51;97.17;101030.66;4805553;29;20158;-64
2023/11/15 05:39:57;;;;;;;22.60;5.65;;;13.30;99.90;;;13.50;97.36;101028.00;4805253;29;20497;-64
2023/11/15 05:42:26;;;;;;;20.88;5.40;;;13.30;99.90;;;13.57;96.66;101035.88;4805700;29;20162;-64
2023/11/15 05:44:57;;;;;;;20.60;6.05;;;13.30;99.90;;;13.44;96.05;101033.41;4805216;29;20054;-64
2023/11/15 05:47:26;;;;;;;23.52;5.60;;;13.30;99.90;;;13.49;95.85;101032.44;4819444;29;20544;-64
2023/11/15 05:49:56;;;;;;;22.85;6.32;;;13.30;99.90;;;13.54;95.93;101035.03;4805241;29;20084;-64
2023/11/15 05:52:25;;;;;;;18.38;5.20;;;13.30;99.90;;;13.62;96.09;101041.13;4805202;29;20501;-64
2023/11/15 05:54:53;;;;;;;30.58;6.00;;;13.40;99.90;;;13.67;96.17;101038.41;4805148;29;20051;-64
2023/11/15 05:57:22;;;;;;;22.38;6.38;;;13.40;99.90;;;13.55;96.98;101037.69;4805159;29;20405;-64
2023/11/15 05:59:50;;;;;;;19.60;6.15;;;13.30;99.90;;;13.63;96.45;101039.38;4805166;29;20469;-63
2023/11/15 06:02:19;;;;;;;25.30;5.95;;;13.40;99.90;;;13.57;96.83;101042.97;4804874;29;20078;-64
2023/11/15 06:04:47;;;;;;;24.13;5.45;;;13.40;99.90;;;13.57;96.09;101049.16;4805097;29;20057;-64
2023/11/15 06:07:17;;;;;;;22.98;5.32;;;13.40;99.90;;;13.56;96.57;101043.88;4819084;29;20050;-64
2023/11/15 06:09:46;;;;;;;24.83;6.30;;;13.30;99.90;;;12.88;97.03;100924.34;4805134;29;20524;-64
2023/11/15 06:12:19;;;;;;;25.00;5.65;;;13.30;99.90;;;13.52;96.60;101036.84;4805280;29;20045;-64
2023/11/15 06:14:48;;;;;;;25.55;6.60;;;13.30;99.90;;;13.58;96.46;101042.97;4806085;29;20047;-64
2023/11/15 06:17:17;;;;;;;22.50;5.72;;;13.30;99.90;;;13.62;96.21;101048.22;4808452;29;20065;-64
2023/11/15 06:19:45;;;;;;;27.42;6.25;;;13.40;99.90;;;13.64;96.19;101041.09;4808213;29;20047;-64
2023/11/15 06:22:24;;;;;;;20.70;5.63;;;13.40;99.90;;;13.57;96.29;101046.50;4808404;29;20409;-63
2023/11/15 06:24:52;;;;;;;27.52;6.93;;;13.40;99.90;;;13.65;96.25;101048.16;4808107;29;20050;-63
2023/11/15 06:27:20;;;;;;;26.27;6.80;;;13.40;99.90;;;13.66;96.23;101049.94;4807960;29;20055;-63
2023/11/15 06:29:49;;;;;;;20.42;6.22;;;13.40;99.90;;;13.75;96.39;101055.13;4808219;29;20074;-63
2023/11/15 06:32:18;;;;;;;24.58;6.60;;;13.50;99.90;;;13.71;95.89;101056.06;4807950;29;20159;-63
2023/11/15 06:34:46;;;;;;;23.00;6.20;;;13.50;99.90;;;13.74;95.79;101059.59;4807895;29;20463;-63
2023/11/15 06:37:15;;;;;;;28.27;6.35;;;13.50;99.90;;;13.73;95.65;101062.22;4821928;29;20051;-63
2023/11/15 06:39:44;;;;;;;19.67;5.53;;;13.50;99.90;;;13.76;95.33;101068.41;4808080;29;20472;-64
2023/11/15 06:42:13;;;;;;;18.17;5.82;;;13.50;99.90;;;13.69;95.71;101057.88;4807760;29;20051;-63
2023/11/15 06:44:41;;;;;;;19.40;5.70;;;13.40;99.90;;;13.76;95.31;101056.91;4807997;29;20081;-63
2023/11/15 06:47:10;;;;;;;22.15;6.10;;;13.50;99.90;;;13.73;95.10;101064.91;4807946;29;20138;-64
2023/11/15 06:49:38;;;;;;;17.33;5.38;;;13.50;99.90;;;13.71;94.86;101070.25;4807679;29;20047;-63
2023/11/15 06:52:07;;;;;;;28.98;7.18;;;13.50;99.90;;;13.65;95.06;101085.38;4807566;29;20092;-63
2023/11/15 06:54:36;;;;;;;24.80;5.25;;;13.40;99.90;;;13.67;94.48;101086.25;4807601;29;20078;-64
2023/11/15 06:57:06;;;;;;;18.75;5.90;;;13.50;99.90;;;13.74;94.35;101085.28;4821849;29;20062;-64
2023/11/15 06:59:34;;;;;;;21.70;5.27;;;13.50;99.90;;;13.82;94.23;101084.25;4807508;29;20043;-63
2023/11/15 07:02:06;;;;;;;25.73;6.82;;;13.60;99.90;;;13.81;94.03;101085.16;4821121;29;20301;-63
2023/11/15 07:04:34;;;;;;;19.13;5.15;;;13.60;99.90;;;13.80;93.88;101086.06;4807485;29;20047;-63
2023/11/15 07:07:03;;;;;;;23.25;5.95;;;13.60;99.90;;;13.79;93.84;101088.75;4807691;29;20049;-63
2023/11/15 07:09:31;;;;;;;31.17;6.18;;;13.60;99.90;;;13.76;93.86;101095.00;4807311;29;20046;-63
2023/11/15 07:12:00;;;;;;;27.02;6.22;;;13.60;99.90;;;13.79;93.97;101088.75;4807509;29;20077;-63
2023/11/15 07:14:30;;;;;;;26.15;7.00;;;13.60;99.90;;;13.89;93.54;101099.25;4807203;29;20067;-63
2023/11/15 07:16:58;;;;;;;25.45;6.38;;;13.60;99.90;;;13.88;93.89;101097.47;4807438;29;20456;-63
2023/11/15 07:19:27;;;;;;;23.88;6.57;;;13.70;99.90;;;13.80;93.95;101101.16;4807151;29;20115;-64
2023/11/15 07:21:56;;;;;;;20.35;5.50;;;13.60;99.90;;;13.79;94.40;101108.25;4807193;29;20051;-63
2023/11/15 07:24:27;;;;;;;23.20;6.15;;;13.60;99.90;;;13.78;93.94;101111.78;4807617;29;20059;-63
2023/11/15 07:26:56;;;;;;;23.38;5.93;;;13.60;99.90;;;13.70;94.28;101112.81;4806470;29;20047;-63
2023/11/15 07:29:26;;;;;;;28.25;5.80;;;13.50;99.90;;;13.55;94.77;101112.09;4821154;29;20087;-64
2023/11/15 07:31:56;;;;;;;26.70;5.63;;;13.40;99.90;;;13.65;94.60;101123.47;4821045;29;20063;-64
2023/11/15 07:34:24;;;;;;;17.40;6.10;;;13.40;99.90;;;13.66;94.68;101124.38;4806837;29;20062;-63
2023/11/15 07:36:55;;;;;;;21.92;5.95;;;13.40;99.90;;;13.59;94.94;101116.47;4806783;29;20466;-64
2023/11/15 07:39:24;;;;;;;24.65;6.45;;;13.40;99.90;;;13.66;94.86;101129.69;4806794;29;20059;-63
2023/11/15 07:41:54;;;;;;;26.48;6.43;;;13.40;99.90;;;13.65;94.66;101128.81;4820887;29;20383;-64
2023/11/15 07:44:25;;;;;;;24.83;6.10;;;13.40;99.90;;;13.74;94.71;101134.03;4806729;29;20071;-64
2023/11/15 07:46:58;;;;;;;18.52;4.90;;;13.50;99.90;;;13.84;94.13;101143.59;4820958;29;20409;-63
2023/11/15 07:49:28;;;;;;;25.63;6.15;;;13.60;99.90;;;13.82;93.96;101141.91;4806704;29;20078;-63
2023/11/15 07:51:57;;;;;;;29.92;6.63;;;13.60;99.90;;;13.80;93.60;101143.69;4806503;29;20497;-63
2023/11/15 07:54:30;;;;;;;25.75;6.85;;;13.60;99.90;;;13.80;94.03;101146.34;4806506;29;20074;-62
2023/11/15 07:57:00;;;;;;;20.38;5.00;;;13.60;99.90;;;13.81;93.90;101151.66;4820464;29;20061;-62
2023/11/15 07:59:29;;;;;;;21.17;5.75;;;13.60;99.90;;;13.78;94.13;101145.50;4806442;29;20046;-62
2023/11/15 08:01:59;;;;;;;21.50;5.93;;;13.60;99.90;;;13.81;94.29;101164.06;4806616;29;20166;-62
2023/11/15 08:04:27;;;;;;;32.43;6.07;;;13.60;99.90;;;13.64;94.47;101148.31;4806386;29;20055;-61
2023/11/15 08:06:56;;;;;;;21.63;5.40;;;13.50;99.90;;;13.60;95.45;101165.22;4806096;29;20046;-61
2023/11/15 08:09:25;;;;;;;23.48;5.95;;;13.40;99.90;;;13.67;95.51;101166.00;4806292;29;20108;-63
2023/11/15 08:11:55;;;;;;;22.52;6.25;;;13.40;99.90;;;13.77;95.47;101175.63;4806738;29;20435;-61
2023/11/15 08:14:26;;;;;;;20.02;6.13;;;13.50;99.90;;;13.67;95.50;101173.97;4806314;29;20146;-61
2023/11/15 08:16:54;;;;;;;23.10;6.10;;;13.50;99.90;;;13.76;95.48;101174.75;4806392;29;20382;-62
2023/11/15 08:19:25;;;;;;;23.45;5.82;;;13.50;99.90;;;13.76;95.32;101173.88;4806356;29;20101;-63
2023/11/15 08:21:53;;;;;;;20.38;6.32;;;13.60;99.90;;;13.74;94.81;101181.88;4806387;29;20137;-63
2023/11/15 08:24:22;;;;;;;23.38;6.35;;;13.50;99.90;;;13.81;94.60;101175.56;4806290;29;20554;-64
2023/11/15 08:26:52;;;;;;;26.17;5.75;;;13.60;99.90;;;13.80;94.30;101186.25;4805901;29;20051;-65
2023/11/15 08:29:22;;;;;;;24.25;6.40;;;13.60;99.90;;;13.74;93.84;101187.19;4806519;29;20075;-64
2023/11/15 08:31:50;;;;;;;16.88;5.78;;;13.60;99.90;;;13.75;94.26;101183.63;4805929;29;20042;-63
2023/11/15 08:34:20;;;;;;;26.98;5.72;;;13.50;99.90;;;13.66;93.83;101186.41;4806201;29;20054;-62
2023/11/15 08:36:53;;;;;;;20.65;5.38;;;13.50;99.90;;;13.77;94.04;101192.47;4805960;29;20068;-61
2023/11/15 08:39:22;;;;;;;20.90;5.95;;;13.50;99.90;;;13.87;93.72;101196.78;4805008;29;20057;-62
2023/11/15 08:41:51;;;;;;;20.52;5.22;;;13.60;99.90;;;13.97;93.04;101200.19;4806072;29;20122;-64
2023/11/15 08:44:19;;;;;;;17.25;5.90;;;13.70;99.90;;;14.05;92.53;101198.31;4806094;29;20058;-63
2023/11/15 08:46:50;;;;;;;26.27;6.18;;;13.80;99.90;;;14.08;92.96;101211.56;4805993;29;20069;-60
2023/11/15 08:49:20;;;;;;;26.45;5.70;;;13.90;99.90;;;14.07;92.52;101201.84;4805785;29;20057;-61
2023/11/15 08:51:50;;;;;;;26.67;6.28;;;13.90;99.90;;;13.94;93.05;101201.09;4805758;29;20058;-60
2023/11/15 08:54:20;;;;;;;;;;;13.80;99.90;;;14.06;92.54;101200.94;4806101;29;20043;-61
2023/11/15 08:56:50;;;;;;;22.23;6.22;;;13.90;99.90;;;13.98;93.14;101199.28;4805628;29;20331;-62
2023/11/15 08:59:20;;;;;;;25.50;6.10;;;13.80;99.90;;;13.91;92.27;101197.59;4805586;29;20112;-60
2023/11/15 09:01:48;;;;;;;22.27;6.10;;;13.80;99.90;;;14.02;92.00;101208.97;4819608;29;20513;-63
2023/11/15 09:04:18;;;;;;;23.30;5.80;;;13.80;99.90;;;14.04;92.34;101217.81;4806012;29;20288;-60
2023/11/15 09:06:46;;;;;;;20.50;5.65;;;13.80;99.90;;;14.07;92.07;101212.47;4806320;29;20046;-61
2023/11/15 09:09:17;;;;;;;24.00;5.88;;;13.80;99.90;;;14.12;91.83;101215.94;4805643;29;20078;-61
2023/11/15 09:11:47;;;;;;;18.60;6.05;;;13.90;99.90;;;14.12;91.81;101226.59;4819752;29;20454;-60
2023/11/15 09:14:16;;;;;;;20.08;5.45;;;13.90;99.90;;;14.03;91.17;101198.31;4805619;29;20074;-62
2023/11/15 09:16:45;;;;;;;21.95;5.68;;;13.90;99.90;;;14.00;90.62;101218.75;4819657;29;20047;-62
2023/11/15 09:19:17;;;;;;;19.20;5.30;;;13.80;99.90;;;14.02;90.48;101215.19;4805946;29;20052;-60
2023/11/15 09:21:45;;;;;;;19.50;5.40;;;13.80;99.90;;;14.12;90.58;101229.25;4805712;29;20454;-62
2023/11/15 09:24:21;;;;;;;21.83;5.75;;;13.90;99.90;;;14.13;90.40;101231.03;4805515;29;20081;-61
2023/11/15 09:26:52;;;;;;;20.70;5.72;;;13.90;99.90;;;14.15;90.69;101223.91;4805513;29;20054;-64
2023/11/15 09:29:21;;;;;;;21.52;5.43;;;13.90;99.90;;;14.08;90.58;101216.88;4805563;29;20137;-62
2023/11/15 09:31:49;;;;;;;19.00;5.90;;;13.90;99.90;;;13.92;91.41;101196.69;4805531;29;20512;-61
2023/11/15 09:34:18;;;;;;;24.05;6.15;;;13.90;99.90;;;14.03;91.72;101210.75;4805247;29;20077;-61
2023/11/15 09:36:48;;;;;;;19.77;6.15;;;13.80;99.90;;;14.19;91.71;101217.59;4805507;29;20421;-60
2023/11/15 09:39:17;;;;;;;14.93;5.43;;;13.90;99.90;;;14.18;91.51;101210.53;4805455;29;20167;-62
2023/11/15 09:41:54;;;;;;;16.98;5.80;;;14.00;99.90;;;14.26;91.00;101220.19;4805716;29;20055;-61
2023/11/15 09:44:24;;;;;;;25.08;5.97;;;14.00;99.90;;;14.38;91.17;101219.19;4805743;29;20138;-62
2023/11/15 09:46:57;;;;;;;23.50;5.85;;;14.10;99.90;;;14.51;90.45;101218.09;4805179;29;20115;-62
2023/11/15 09:49:27;;;;;;;28.10;6.07;;;14.30;99.90;;;14.85;89.31;101229.06;4805898;29;20050;-62
2023/11/15 09:51:59;;;;;;;21.00;6.25;;;14.60;99.90;;;15.01;87.40;101230.59;4822647;29;20065;-62
2023/11/15 09:54:27;;;;;;;26.65;6.28;;;14.80;99.90;;;15.02;86.44;101235.03;4808846;29;20059;-62
2023/11/15 09:57:01;;;;;;;19.83;4.97;;;14.80;99.90;;;15.15;86.45;101231.25;4809047;29;20073;-62
2023/11/15 09:59:30;;;;;;;21.20;5.63;;;14.90;99.90;;;15.14;86.00;101238.34;4808718;29;20054;-61
2023/11/15 10:01:58;;;;;;;19.75;6.10;;;14.90;99.90;;;14.97;85.94;101240.44;4808206;29;20058;-63
2023/11/15 10:04:29;;;;;;;21.00;5.60;;;14.80;99.90;;;14.95;86.08;101241.34;4807325;29;20542;-63
2023/11/15 10:06:58;;;;;;;21.88;5.65;;;14.80;99.90;;;14.75;86.61;101244.31;4808545;29;20051;-64
2023/11/15 10:09:36;;;;;;;20.98;6.22;;;14.60;99.90;;;14.82;86.76;101242.47;4808486;29;20043;-62
2023/11/15 10:12:07;;;;;;;21.85;5.72;;;14.60;99.90;;;14.74;87.40;101245.25;4808290;29;20062;-61
2023/11/15 10:14:51;;;;;;;21.17;5.30;;;14.50;99.90;;;14.74;86.83;101247.91;4822278;29;20084;-61